sensor_id;sensor_type;location;lat;lon;timestamp;P1;durP1;ratioP1;P2;durP2;ratioP2
76667;SDS011;65585;51.166;16.922;2023-09-07T00:01:31;10.65;;;7.57;;
76667;SDS011;65585;51.166;16.922;2023-09-07T00:03:58;11.52;;;7.40;;
76667;SDS011;65585;51.166;16.922;2023-09-07T00:06:24;12.68;;;8.13;;
76667;SDS011;65585;51.166;16.922;2023-09-07T00:08:51;13.13;;;7.55;;
76667;SDS011;65585;51.166;16.922;2023-09-07T00:11:18;9.82;;;7.93;;
76667;SDS011;65585;51.166;16.922;2023-09-07T00:13:44;11.45;;;7.53;;
76667;SDS011;65585;51.166;16.922;2023-09-07T00:18:45;10.75;;;7.70;;
76667;SDS011;65585;51.166;16.922;2023-09-07T00:21:11;9.98;;;7.40;;
76667;SDS011;65585;51.166;16.922;2023-09-07T00:23:37;10.25;;;7.45;;
76667;SDS011;65585;51.166;16.922;2023-09-07T00:26:03;9.48;;;7.40;;
76667;SDS011;65585;51.166;16.922;2023-09-07T00:28:29;9.63;;;7.30;;
76667;SDS011;65585;51.166;16.922;2023-09-07T00:30:55;11.07;;;7.60;;
76667;SDS011;65585;51.166;16.922;2023-09-07T00:33:20;9.43;;;7.65;;
76667;SDS011;65585;51.166;16.922;2023-09-07T00:35:46;8.95;;;7.15;;
76667;SDS011;65585;51.166;16.922;2023-09-07T00:38:28;12.50;;;7.68;;
76667;SDS011;65585;51.166;16.922;2023-09-07T00:43:19;11.45;;;8.32;;
76667;SDS011;65585;51.166;16.922;2023-09-07T00:45:45;12.02;;;7.65;;
76667;SDS011;65585;51.166;16.922;2023-09-07T00:48:12;11.65;;;8.65;;
76667;SDS011;65585;51.166;16.922;2023-09-07T00:50:40;11.25;;;7.45;;
76667;SDS011;65585;51.166;16.922;2023-09-07T00:53:06;12.40;;;8.75;;
76667;SDS011;65585;51.166;16.922;2023-09-07T00:55:32;11.93;;;8.63;;
76667;SDS011;65585;51.166;16.922;2023-09-07T00:58:00;11.73;;;8.77;;
76667;SDS011;65585;51.166;16.922;2023-09-07T01:00:28;11.10;;;7.82;;
76667;SDS011;65585;51.166;16.922;2023-09-07T01:02:54;13.90;;;8.93;;
76667;SDS011;65585;51.166;16.922;2023-09-07T01:07:50;10.52;;;7.90;;
76667;SDS011;65585;51.166;16.922;2023-09-07T01:10:24;9.25;;;6.88;;
76667;SDS011;65585;51.166;16.922;2023-09-07T01:12:49;11.55;;;8.32;;
76667;SDS011;65585;51.166;16.922;2023-09-07T01:15:15;11.27;;;7.63;;
76667;SDS011;65585;51.166;16.922;2023-09-07T01:17:41;10.55;;;7.43;;
76667;SDS011;65585;51.166;16.922;2023-09-07T01:20:08;11.52;;;7.30;;
76667;SDS011;65585;51.166;16.922;2023-09-07T01:22:35;9.40;;;7.65;;
76667;SDS011;65585;51.166;16.922;2023-09-07T01:25:02;15.25;;;7.63;;
76667;SDS011;65585;51.166;16.922;2023-09-07T01:27:30;12.23;;;7.07;;
76667;SDS011;65585;51.166;16.922;2023-09-07T01:32:14;9.90;;;7.28;;
76667;SDS011;65585;51.166;16.922;2023-09-07T01:34:41;10.75;;;7.47;;
76667;SDS011;65585;51.166;16.922;2023-09-07T01:37:06;10.57;;;7.10;;
76667;SDS011;65585;51.166;16.922;2023-09-07T01:39:32;9.45;;;6.95;;
76667;SDS011;65585;51.166;16.922;2023-09-07T01:41:58;10.13;;;6.82;;
76667;SDS011;65585;51.166;16.922;2023-09-07T01:44:24;11.85;;;7.35;;
76667;SDS011;65585;51.166;16.922;2023-09-07T01:46:52;9.85;;;7.20;;
76667;SDS011;65585;51.166;16.922;2023-09-07T01:49:18;10.38;;;7.93;;
76667;SDS011;65585;51.166;16.922;2023-09-07T01:52:10;12.63;;;8.80;;
76667;SDS011;65585;51.166;16.922;2023-09-07T01:54:36;10.32;;;7.72;;
76667;SDS011;65585;51.166;16.922;2023-09-07T01:57:02;10.48;;;8.00;;
76667;SDS011;65585;51.166;16.922;2023-09-07T01:59:28;11.00;;;7.95;;
76667;SDS011;65585;51.166;16.922;2023-09-07T02:01:54;10.07;;;8.60;;
76667;SDS011;65585;51.166;16.922;2023-09-07T02:04:20;11.43;;;8.40;;
76667;SDS011;65585;51.166;16.922;2023-09-07T02:06:46;9.60;;;7.50;;
76667;SDS011;65585;51.166;16.922;2023-09-07T02:09:12;10.15;;;7.88;;
76667;SDS011;65585;51.166;16.922;2023-09-07T02:11:38;12.13;;;7.82;;
76667;SDS011;65585;51.166;16.922;2023-09-07T02:14:05;11.32;;;8.20;;
76667;SDS011;65585;51.166;16.922;2023-09-07T02:16:31;10.85;;;7.82;;
76667;SDS011;65585;51.166;16.922;2023-09-07T02:19:09;11.80;;;7.88;;
76667;SDS011;65585;51.166;16.922;2023-09-07T02:21:35;10.23;;;7.82;;
76667;SDS011;65585;51.166;16.922;2023-09-07T02:24:01;10.18;;;7.53;;
76667;SDS011;65585;51.166;16.922;2023-09-07T02:26:28;10.90;;;7.30;;
76667;SDS011;65585;51.166;16.922;2023-09-07T02:28:54;11.63;;;7.60;;
76667;SDS011;65585;51.166;16.922;2023-09-07T02:31:21;11.25;;;7.60;;
76667;SDS011;65585;51.166;16.922;2023-09-07T02:33:47;11.75;;;7.97;;
76667;SDS011;65585;51.166;16.922;2023-09-07T02:36:13;10.90;;;7.13;;
76667;SDS011;65585;51.166;16.922;2023-09-07T02:38:50;11.70;;;7.82;;
76667;SDS011;65585;51.166;16.922;2023-09-07T02:41:16;10.65;;;7.25;;
76667;SDS011;65585;51.166;16.922;2023-09-07T02:43:41;10.40;;;7.97;;
76667;SDS011;65585;51.166;16.922;2023-09-07T02:46:08;9.73;;;6.95;;
76667;SDS011;65585;51.166;16.922;2023-09-07T02:48:33;10.02;;;7.00;;
76667;SDS011;65585;51.166;16.922;2023-09-07T02:51:00;11.60;;;8.20;;
76667;SDS011;65585;51.166;16.922;2023-09-07T02:53:26;11.32;;;7.00;;
76667;SDS011;65585;51.166;16.922;2023-09-07T02:55:52;12.95;;;7.95;;
76667;SDS011;65585;51.166;16.922;2023-09-07T02:58:18;12.50;;;7.78;;
76667;SDS011;65585;51.166;16.922;2023-09-07T03:03:25;13.13;;;8.23;;
76667;SDS011;65585;51.166;16.922;2023-09-07T03:05:52;10.90;;;7.63;;
76667;SDS011;65585;51.166;16.922;2023-09-07T03:08:17;13.10;;;7.50;;
76667;SDS011;65585;51.166;16.922;2023-09-07T03:10:43;11.55;;;7.55;;
76667;SDS011;65585;51.166;16.922;2023-09-07T03:13:09;10.35;;;7.57;;
76667;SDS011;65585;51.166;16.922;2023-09-07T03:15:36;14.25;;;7.78;;
76667;SDS011;65585;51.166;16.922;2023-09-07T03:18:01;9.25;;;7.00;;
76667;SDS011;65585;51.166;16.922;2023-09-07T03:20:28;10.02;;;7.10;;
76667;SDS011;65585;51.166;16.922;2023-09-07T03:23:07;10.07;;;7.57;;
76667;SDS011;65585;51.166;16.922;2023-09-07T03:25:33;9.60;;;7.05;;
76667;SDS011;65585;51.166;16.922;2023-09-07T03:27:59;10.65;;;7.40;;
76667;SDS011;65585;51.166;16.922;2023-09-07T03:30:25;9.07;;;7.18;;
76667;SDS011;65585;51.166;16.922;2023-09-07T03:32:51;9.98;;;7.18;;
76667;SDS011;65585;51.166;16.922;2023-09-07T03:35:17;11.15;;;7.38;;
76667;SDS011;65585;51.166;16.922;2023-09-07T03:37:42;12.13;;;8.02;;
76667;SDS011;65585;51.166;16.922;2023-09-07T03:40:09;11.45;;;7.93;;
76667;SDS011;65585;51.166;16.922;2023-09-07T03:42:50;11.38;;;6.85;;
76667;SDS011;65585;51.166;16.922;2023-09-07T03:45:27;10.95;;;8.48;;
76667;SDS011;65585;51.166;16.922;2023-09-07T03:47:53;10.02;;;7.78;;
76667;SDS011;65585;51.166;16.922;2023-09-07T03:50:18;8.95;;;7.03;;
76667;SDS011;65585;51.166;16.922;2023-09-07T03:52:44;11.05;;;8.30;;
76667;SDS011;65585;51.166;16.922;2023-09-07T03:55:12;11.20;;;7.45;;
76667;SDS011;65585;51.166;16.922;2023-09-07T03:57:38;12.30;;;8.43;;
76667;SDS011;65585;51.166;16.922;2023-09-07T04:00:05;12.32;;;7.68;;
76667;SDS011;65585;51.166;16.922;2023-09-07T04:02:34;11.35;;;8.00;;
76667;SDS011;65585;51.166;16.922;2023-09-07T04:04:59;10.45;;;7.82;;
76667;SDS011;65585;51.166;16.922;2023-09-07T04:07:31;11.02;;;8.85;;
76667;SDS011;65585;51.166;16.922;2023-09-07T04:09:58;10.60;;;8.25;;
76667;SDS011;65585;51.166;16.922;2023-09-07T04:12:24;11.95;;;9.07;;
76667;SDS011;65585;51.166;16.922;2023-09-07T04:14:51;12.07;;;8.30;;
76667;SDS011;65585;51.166;16.922;2023-09-07T04:17:17;11.82;;;7.90;;
76667;SDS011;65585;51.166;16.922;2023-09-07T04:19:42;14.70;;;8.85;;
76667;SDS011;65585;51.166;16.922;2023-09-07T04:22:10;12.40;;;8.23;;
76667;SDS011;65585;51.166;16.922;2023-09-07T04:24:36;8.90;;;7.45;;
76667;SDS011;65585;51.166;16.922;2023-09-07T04:27:03;10.98;;;8.25;;
76667;SDS011;65585;51.166;16.922;2023-09-07T04:29:29;12.95;;;8.57;;
76667;SDS011;65585;51.166;16.922;2023-09-07T04:31:56;11.63;;;8.50;;
76667;SDS011;65585;51.166;16.922;2023-09-07T04:34:22;13.18;;;8.68;;
76667;SDS011;65585;51.166;16.922;2023-09-07T04:36:48;11.43;;;8.80;;
76667;SDS011;65585;51.166;16.922;2023-09-07T04:39:14;11.18;;;9.05;;
76667;SDS011;65585;51.166;16.922;2023-09-07T04:41:46;15.90;;;8.02;;
76667;SDS011;65585;51.166;16.922;2023-09-07T04:44:22;11.82;;;8.20;;
76667;SDS011;65585;51.166;16.922;2023-09-07T04:46:48;11.88;;;8.40;;
76667;SDS011;65585;51.166;16.922;2023-09-07T04:49:15;12.00;;;7.97;;
76667;SDS011;65585;51.166;16.922;2023-09-07T04:51:41;10.30;;;7.75;;
76667;SDS011;65585;51.166;16.922;2023-09-07T04:54:07;11.52;;;9.20;;
76667;SDS011;65585;51.166;16.922;2023-09-07T04:56:33;11.40;;;8.43;;
76667;SDS011;65585;51.166;16.922;2023-09-07T04:58:59;12.60;;;9.68;;
76667;SDS011;65585;51.166;16.922;2023-09-07T05:01:25;14.30;;;10.13;;
76667;SDS011;65585;51.166;16.922;2023-09-07T05:03:51;17.33;;;9.40;;
76667;SDS011;65585;51.166;16.922;2023-09-07T05:06:17;16.55;;;9.65;;
76667;SDS011;65585;51.166;16.922;2023-09-07T05:08:43;17.17;;;9.68;;
76667;SDS011;65585;51.166;16.922;2023-09-07T05:11:09;18.35;;;10.35;;
76667;SDS011;65585;51.166;16.922;2023-09-07T05:13:36;19.58;;;10.70;;
76667;SDS011;65585;51.166;16.922;2023-09-07T05:16:02;17.27;;;11.35;;
76667;SDS011;65585;51.166;16.922;2023-09-07T05:18:28;18.15;;;11.35;;
76667;SDS011;65585;51.166;16.922;2023-09-07T05:20:54;14.27;;;10.48;;
76667;SDS011;65585;51.166;16.922;2023-09-07T05:23:20;19.02;;;11.98;;
76667;SDS011;65585;51.166;16.922;2023-09-07T05:25:50;20.58;;;12.30;;
76667;SDS011;65585;51.166;16.922;2023-09-07T05:28:20;18.65;;;12.93;;
76667;SDS011;65585;51.166;16.922;2023-09-07T05:30:48;19.15;;;13.38;;
76667;SDS011;65585;51.166;16.922;2023-09-07T05:33:14;24.90;;;14.98;;
76667;SDS011;65585;51.166;16.922;2023-09-07T05:35:41;23.33;;;14.20;;
76667;SDS011;65585;51.166;16.922;2023-09-07T05:38:07;24.05;;;15.50;;
76667;SDS011;65585;51.166;16.922;2023-09-07T05:40:37;21.27;;;14.43;;
76667;SDS011;65585;51.166;16.922;2023-09-07T05:43:04;22.85;;;14.32;;
76667;SDS011;65585;51.166;16.922;2023-09-07T05:45:31;21.08;;;14.73;;
76667;SDS011;65585;51.166;16.922;2023-09-07T05:47:59;25.05;;;14.68;;
76667;SDS011;65585;51.166;16.922;2023-09-07T05:50:25;24.45;;;15.63;;
76667;SDS011;65585;51.166;16.922;2023-09-07T05:52:50;25.98;;;16.02;;
76667;SDS011;65585;51.166;16.922;2023-09-07T05:55:17;23.67;;;15.60;;
76667;SDS011;65585;51.166;16.922;2023-09-07T05:57:42;26.10;;;15.73;;
76667;SDS011;65585;51.166;16.922;2023-09-07T06:00:09;22.60;;;16.20;;
76667;SDS011;65585;51.166;16.922;2023-09-07T06:02:35;24.60;;;15.90;;
76667;SDS011;65585;51.166;16.922;2023-09-07T06:05:01;20.05;;;14.60;;
76667;SDS011;65585;51.166;16.922;2023-09-07T06:07:27;20.70;;;14.77;;
76667;SDS011;65585;51.166;16.922;2023-09-07T06:09:53;21.77;;;14.77;;
76667;SDS011;65585;51.166;16.922;2023-09-07T06:12:19;19.33;;;15.25;;
76667;SDS011;65585;51.166;16.922;2023-09-07T06:14:46;19.20;;;14.48;;
76667;SDS011;65585;51.166;16.922;2023-09-07T06:17:12;19.45;;;14.88;;
76667;SDS011;65585;51.166;16.922;2023-09-07T06:19:38;17.20;;;12.70;;
76667;SDS011;65585;51.166;16.922;2023-09-07T06:22:04;18.23;;;13.15;;
76667;SDS011;65585;51.166;16.922;2023-09-07T06:24:30;19.92;;;14.57;;
76667;SDS011;65585;51.166;16.922;2023-09-07T06:26:56;19.52;;;13.60;;
76667;SDS011;65585;51.166;16.922;2023-09-07T06:29:22;19.80;;;13.10;;
76667;SDS011;65585;51.166;16.922;2023-09-07T06:31:48;17.50;;;12.85;;
76667;SDS011;65585;51.166;16.922;2023-09-07T06:34:15;16.92;;;12.25;;
76667;SDS011;65585;51.166;16.922;2023-09-07T06:36:41;21.75;;;12.88;;
76667;SDS011;65585;51.166;16.922;2023-09-07T06:39:07;18.60;;;13.50;;
76667;SDS011;65585;51.166;16.922;2023-09-07T06:41:34;19.90;;;14.02;;
76667;SDS011;65585;51.166;16.922;2023-09-07T06:44:00;16.65;;;12.63;;
76667;SDS011;65585;51.166;16.922;2023-09-07T06:46:26;18.35;;;12.45;;
76667;SDS011;65585;51.166;16.922;2023-09-07T06:48:52;18.27;;;14.07;;
76667;SDS011;65585;51.166;16.922;2023-09-07T06:51:18;16.55;;;12.32;;
76667;SDS011;65585;51.166;16.922;2023-09-07T06:53:44;19.17;;;13.18;;
76667;SDS011;65585;51.166;16.922;2023-09-07T06:56:10;17.15;;;13.55;;
76667;SDS011;65585;51.166;16.922;2023-09-07T06:58:36;17.13;;;12.98;;
76667;SDS011;65585;51.166;16.922;2023-09-07T07:01:02;15.88;;;12.13;;
76667;SDS011;65585;51.166;16.922;2023-09-07T07:03:30;15.10;;;12.10;;
76667;SDS011;65585;51.166;16.922;2023-09-07T07:05:56;16.85;;;11.85;;
76667;SDS011;65585;51.166;16.922;2023-09-07T07:08:23;13.75;;;10.95;;
76667;SDS011;65585;51.166;16.922;2023-09-07T07:10:49;16.27;;;11.77;;
76667;SDS011;65585;51.166;16.922;2023-09-07T07:13:15;16.08;;;12.90;;
76667;SDS011;65585;51.166;16.922;2023-09-07T07:15:41;19.17;;;11.63;;
76667;SDS011;65585;51.166;16.922;2023-09-07T07:18:07;16.60;;;10.13;;
76667;SDS011;65585;51.166;16.922;2023-09-07T07:20:35;14.80;;;11.70;;
76667;SDS011;65585;51.166;16.922;2023-09-07T07:23:01;19.10;;;12.13;;
76667;SDS011;65585;51.166;16.922;2023-09-07T07:25:27;17.65;;;10.75;;
76667;SDS011;65585;51.166;16.922;2023-09-07T07:27:54;17.45;;;11.35;;
76667;SDS011;65585;51.166;16.922;2023-09-07T07:30:20;16.65;;;11.30;;
76667;SDS011;65585;51.166;16.922;2023-09-07T07:32:46;16.70;;;11.20;;
76667;SDS011;65585;51.166;16.922;2023-09-07T07:35:12;17.90;;;11.75;;
76667;SDS011;65585;51.166;16.922;2023-09-07T07:37:38;15.63;;;11.13;;
76667;SDS011;65585;51.166;16.922;2023-09-07T07:40:04;18.90;;;11.38;;
76667;SDS011;65585;51.166;16.922;2023-09-07T07:42:31;14.90;;;11.25;;
76667;SDS011;65585;51.166;16.922;2023-09-07T07:44:58;14.55;;;10.10;;
76667;SDS011;65585;51.166;16.922;2023-09-07T07:47:24;15.00;;;10.35;;
76667;SDS011;65585;51.166;16.922;2023-09-07T07:52:17;11.77;;;9.70;;
76667;SDS011;65585;51.166;16.922;2023-09-07T07:54:43;16.83;;;9.35;;
76667;SDS011;65585;51.166;16.922;2023-09-07T07:57:09;14.13;;;9.60;;
76667;SDS011;65585;51.166;16.922;2023-09-07T07:59:36;15.05;;;9.02;;
76667;SDS011;65585;51.166;16.922;2023-09-07T08:02:02;15.20;;;8.68;;
76667;SDS011;65585;51.166;16.922;2023-09-07T08:04:28;13.52;;;8.75;;
76667;SDS011;65585;51.166;16.922;2023-09-07T08:06:54;11.52;;;7.93;;
76667;SDS011;65585;51.166;16.922;2023-09-07T08:09:23;13.55;;;8.10;;
76667;SDS011;65585;51.166;16.922;2023-09-07T08:11:49;12.73;;;7.90;;
76667;SDS011;65585;51.166;16.922;2023-09-07T08:14:16;12.23;;;8.20;;
76667;SDS011;65585;51.166;16.922;2023-09-07T08:16:42;13.55;;;8.15;;
76667;SDS011;65585;51.166;16.922;2023-09-07T08:19:08;9.45;;;7.55;;
76667;SDS011;65585;51.166;16.922;2023-09-07T08:21:34;12.18;;;8.88;;
76667;SDS011;65585;51.166;16.922;2023-09-07T08:24:00;11.27;;;7.55;;
76667;SDS011;65585;51.166;16.922;2023-09-07T08:26:28;9.23;;;7.10;;
76667;SDS011;65585;51.166;16.922;2023-09-07T08:28:54;11.65;;;8.18;;
76667;SDS011;65585;51.166;16.922;2023-09-07T08:31:20;15.45;;;7.80;;
76667;SDS011;65585;51.166;16.922;2023-09-07T08:33:48;13.13;;;7.03;;
76667;SDS011;65585;51.166;16.922;2023-09-07T08:36:16;13.07;;;8.30;;
76667;SDS011;65585;51.166;16.922;2023-09-07T08:38:42;11.00;;;7.13;;
76667;SDS011;65585;51.166;16.922;2023-09-07T08:41:09;11.68;;;6.43;;
76667;SDS011;65585;51.166;16.922;2023-09-07T08:43:35;9.30;;;6.78;;
76667;SDS011;65585;51.166;16.922;2023-09-07T08:46:15;11.30;;;7.00;;
76667;SDS011;65585;51.166;16.922;2023-09-07T08:48:45;10.75;;;6.90;;
76667;SDS011;65585;51.166;16.922;2023-09-07T08:51:12;10.27;;;6.53;;
76667;SDS011;65585;51.166;16.922;2023-09-07T08:53:40;8.80;;;6.28;;
76667;SDS011;65585;51.166;16.922;2023-09-07T08:56:12;12.30;;;7.03;;
76667;SDS011;65585;51.166;16.922;2023-09-07T08:58:38;12.32;;;7.25;;
76667;SDS011;65585;51.166;16.922;2023-09-07T09:01:07;10.10;;;6.72;;
76667;SDS011;65585;51.166;16.922;2023-09-07T09:03:36;11.13;;;6.78;;
76667;SDS011;65585;51.166;16.922;2023-09-07T09:06:02;10.05;;;6.90;;
76667;SDS011;65585;51.166;16.922;2023-09-07T09:08:29;9.52;;;6.82;;
76667;SDS011;65585;51.166;16.922;2023-09-07T09:11:06;11.88;;;6.88;;
76667;SDS011;65585;51.166;16.922;2023-09-07T09:13:32;13.35;;;7.10;;
76667;SDS011;65585;51.166;16.922;2023-09-07T09:15:59;8.82;;;6.20;;
76667;SDS011;65585;51.166;16.922;2023-09-07T09:18:32;13.73;;;6.95;;
76667;SDS011;65585;51.166;16.922;2023-09-07T09:21:01;10.20;;;6.70;;
76667;SDS011;65585;51.166;16.922;2023-09-07T09:23:34;10.25;;;6.85;;
76667;SDS011;65585;51.166;16.922;2023-09-07T09:26:07;11.80;;;5.85;;
76667;SDS011;65585;51.166;16.922;2023-09-07T09:28:34;8.75;;;6.28;;
76667;SDS011;65585;51.166;16.922;2023-09-07T09:31:00;14.05;;;6.53;;
76667;SDS011;65585;51.166;16.922;2023-09-07T09:33:30;10.25;;;6.85;;
76667;SDS011;65585;51.166;16.922;2023-09-07T09:35:56;8.30;;;6.43;;
76667;SDS011;65585;51.166;16.922;2023-09-07T09:38:23;11.13;;;6.55;;
76667;SDS011;65585;51.166;16.922;2023-09-07T09:40:49;11.73;;;6.05;;
76667;SDS011;65585;51.166;16.922;2023-09-07T09:43:16;8.32;;;5.93;;
76667;SDS011;65585;51.166;16.922;2023-09-07T09:45:44;7.07;;;5.65;;
76667;SDS011;65585;51.166;16.922;2023-09-07T09:48:10;7.97;;;5.65;;
76667;SDS011;65585;51.166;16.922;2023-09-07T09:50:36;8.77;;;5.70;;
76667;SDS011;65585;51.166;16.922;2023-09-07T09:53:05;9.25;;;6.03;;
76667;SDS011;65585;51.166;16.922;2023-09-07T09:55:32;7.85;;;5.90;;
76667;SDS011;65585;51.166;16.922;2023-09-07T09:57:59;8.13;;;5.63;;
76667;SDS011;65585;51.166;16.922;2023-09-07T10:00:25;8.57;;;5.18;;
76667;SDS011;65585;51.166;16.922;2023-09-07T10:03:38;7.05;;;5.15;;
76667;SDS011;65585;51.166;16.922;2023-09-07T10:05:44;6.57;;;4.90;;
76667;SDS011;65585;51.166;16.922;2023-09-07T10:08:15;7.75;;;4.93;;
76667;SDS011;65585;51.166;16.922;2023-09-07T10:10:43;6.85;;;5.43;;
76667;SDS011;65585;51.166;16.922;2023-09-07T10:13:13;8.05;;;5.40;;
76667;SDS011;65585;51.166;16.922;2023-09-07T10:15:39;6.82;;;5.20;;
76667;SDS011;65585;51.166;16.922;2023-09-07T10:18:15;7.57;;;5.63;;
76667;SDS011;65585;51.166;16.922;2023-09-07T10:20:58;8.85;;;5.20;;
76667;SDS011;65585;51.166;16.922;2023-09-07T10:23:37;8.43;;;5.82;;
76667;SDS011;65585;51.166;16.922;2023-09-07T10:26:11;5.65;;;5.00;;
76667;SDS011;65585;51.166;16.922;2023-09-07T10:28:39;8.02;;;5.60;;
76667;SDS011;65585;51.166;16.922;2023-09-07T10:31:06;6.47;;;5.22;;
76667;SDS011;65585;51.166;16.922;2023-09-07T10:33:38;7.30;;;5.85;;
76667;SDS011;65585;51.166;16.922;2023-09-07T10:36:04;9.38;;;5.57;;
76667;SDS011;65585;51.166;16.922;2023-09-07T10:38:31;6.38;;;5.25;;
76667;SDS011;65585;51.166;16.922;2023-09-07T10:41:03;6.53;;;5.72;;
76667;SDS011;65585;51.166;16.922;2023-09-07T10:43:30;6.97;;;4.97;;
76667;SDS011;65585;51.166;16.922;2023-09-07T10:45:58;7.53;;;5.38;;
76667;SDS011;65585;51.166;16.922;2023-09-07T10:48:29;7.35;;;5.45;;
76667;SDS011;65585;51.166;16.922;2023-09-07T10:50:56;6.68;;;4.18;;
76667;SDS011;65585;51.166;16.922;2023-09-07T10:53:26;6.80;;;5.28;;
76667;SDS011;65585;51.166;16.922;2023-09-07T10:55:53;8.63;;;5.20;;
76667;SDS011;65585;51.166;16.922;2023-09-07T10:58:55;7.80;;;5.55;;
76667;SDS011;65585;51.166;16.922;2023-09-07T11:01:17;7.55;;;5.22;;
76667;SDS011;65585;51.166;16.922;2023-09-07T11:03:46;7.05;;;5.07;;
76667;SDS011;65585;51.166;16.922;2023-09-07T11:06:14;6.72;;;5.25;;
76667;SDS011;65585;51.166;16.922;2023-09-07T11:08:43;6.68;;;5.07;;
76667;SDS011;65585;51.166;16.922;2023-09-07T11:11:09;6.25;;;5.20;;
76667;SDS011;65585;51.166;16.922;2023-09-07T11:13:35;8.57;;;5.13;;
76667;SDS011;65585;51.166;16.922;2023-09-07T11:16:01;5.68;;;4.55;;
76667;SDS011;65585;51.166;16.922;2023-09-07T11:20:53;4.95;;;4.15;;
76667;SDS011;65585;51.166;16.922;2023-09-07T11:23:21;8.80;;;5.10;;
76667;SDS011;65585;51.166;16.922;2023-09-07T11:25:48;6.97;;;5.47;;
76667;SDS011;65585;51.166;16.922;2023-09-07T11:28:15;9.63;;;5.00;;
76667;SDS011;65585;51.166;16.922;2023-09-07T11:30:53;7.45;;;5.13;;
76667;SDS011;65585;51.166;16.922;2023-09-07T11:33:20;7.18;;;5.10;;
76667;SDS011;65585;51.166;16.922;2023-09-07T11:35:47;6.90;;;4.55;;
76667;SDS011;65585;51.166;16.922;2023-09-07T11:38:14;10.65;;;5.13;;
76667;SDS011;65585;51.166;16.922;2023-09-07T11:40:41;7.88;;;5.13;;
76667;SDS011;65585;51.166;16.922;2023-09-07T11:43:11;13.35;;;5.07;;
76667;SDS011;65585;51.166;16.922;2023-09-07T11:45:41;9.40;;;4.82;;
76667;SDS011;65585;51.166;16.922;2023-09-07T11:48:08;11.05;;;5.40;;
76667;SDS011;65585;51.166;16.922;2023-09-07T11:50:35;6.45;;;4.57;;
76667;SDS011;65585;51.166;16.922;2023-09-07T11:53:02;6.78;;;4.95;;
76667;SDS011;65585;51.166;16.922;2023-09-07T11:55:28;7.22;;;4.80;;
76667;SDS011;65585;51.166;16.922;2023-09-07T11:57:54;4.90;;;4.40;;
76667;SDS011;65585;51.166;16.922;2023-09-07T12:00:20;6.20;;;4.95;;
76667;SDS011;65585;51.166;16.922;2023-09-07T12:02:48;6.57;;;4.88;;
76667;SDS011;65585;51.166;16.922;2023-09-07T12:05:14;6.22;;;4.75;;
76667;SDS011;65585;51.166;16.922;2023-09-07T12:07:41;7.05;;;5.05;;
76667;SDS011;65585;51.166;16.922;2023-09-07T12:10:10;5.93;;;4.95;;
76667;SDS011;65585;51.166;16.922;2023-09-07T12:12:37;5.88;;;5.28;;
76667;SDS011;65585;51.166;16.922;2023-09-07T12:15:03;7.15;;;5.05;;
76667;SDS011;65585;51.166;16.922;2023-09-07T12:19:56;6.43;;;4.55;;
76667;SDS011;65585;51.166;16.922;2023-09-07T12:22:22;5.72;;;4.93;;
76667;SDS011;65585;51.166;16.922;2023-09-07T12:24:48;7.63;;;5.03;;
76667;SDS011;65585;51.166;16.922;2023-09-07T12:27:15;7.13;;;4.75;;
76667;SDS011;65585;51.166;16.922;2023-09-07T12:29:41;6.15;;;4.78;;
76667;SDS011;65585;51.166;16.922;2023-09-07T12:32:08;10.60;;;5.10;;
76667;SDS011;65585;51.166;16.922;2023-09-07T12:34:33;7.68;;;5.43;;
76667;SDS011;65585;51.166;16.922;2023-09-07T12:36:59;11.13;;;4.90;;
76667;SDS011;65585;51.166;16.922;2023-09-07T12:39:29;7.75;;;4.88;;
76667;SDS011;65585;51.166;16.922;2023-09-07T12:41:55;7.25;;;5.18;;
76667;SDS011;65585;51.166;16.922;2023-09-07T12:44:21;6.65;;;5.22;;
76667;SDS011;65585;51.166;16.922;2023-09-07T12:46:47;5.95;;;4.90;;
76667;SDS011;65585;51.166;16.922;2023-09-07T12:49:13;6.28;;;4.97;;
76667;SDS011;65585;51.166;16.922;2023-09-07T12:51:45;5.65;;;5.03;;
76667;SDS011;65585;51.166;16.922;2023-09-07T12:54:12;7.05;;;5.32;;
76667;SDS011;65585;51.166;16.922;2023-09-07T12:56:38;6.55;;;5.47;;
76667;SDS011;65585;51.166;16.922;2023-09-07T12:59:04;7.22;;;5.22;;
76667;SDS011;65585;51.166;16.922;2023-09-07T13:01:30;6.50;;;4.88;;
76667;SDS011;65585;51.166;16.922;2023-09-07T13:06:23;6.65;;;5.18;;
76667;SDS011;65585;51.166;16.922;2023-09-07T13:08:49;6.10;;;5.35;;
76667;SDS011;65585;51.166;16.922;2023-09-07T13:11:15;8.98;;;4.90;;
76667;SDS011;65585;51.166;16.922;2023-09-07T13:13:40;8.05;;;5.10;;
76667;SDS011;65585;51.166;16.922;2023-09-07T13:16:06;6.57;;;4.72;;
76667;SDS011;65585;51.166;16.922;2023-09-07T13:18:33;8.20;;;5.50;;
76667;SDS011;65585;51.166;16.922;2023-09-07T13:21:02;5.93;;;4.82;;
76667;SDS011;65585;51.166;16.922;2023-09-07T13:23:28;6.85;;;5.55;;
76667;SDS011;65585;51.166;16.922;2023-09-07T13:25:57;7.85;;;4.80;;
76667;SDS011;65585;51.166;16.922;2023-09-07T13:28:25;6.10;;;5.47;;
76667;SDS011;65585;51.166;16.922;2023-09-07T13:30:52;6.15;;;5.55;;
76667;SDS011;65585;51.166;16.922;2023-09-07T13:33:18;6.63;;;5.40;;
76667;SDS011;65585;51.166;16.922;2023-09-07T13:35:45;6.68;;;5.20;;
76667;SDS011;65585;51.166;16.922;2023-09-07T13:38:11;6.40;;;5.80;;
76667;SDS011;65585;51.166;16.922;2023-09-07T13:40:37;7.05;;;5.50;;
76667;SDS011;65585;51.166;16.922;2023-09-07T13:43:02;6.22;;;5.57;;
76667;SDS011;65585;51.166;16.922;2023-09-07T13:45:29;5.78;;;5.18;;
76667;SDS011;65585;51.166;16.922;2023-09-07T13:47:55;7.15;;;5.53;;
76667;SDS011;65585;51.166;16.922;2023-09-07T13:50:22;5.28;;;4.78;;
76667;SDS011;65585;51.166;16.922;2023-09-07T13:52:48;5.68;;;5.13;;
76667;SDS011;65585;51.166;16.922;2023-09-07T13:55:14;6.10;;;5.05;;
76667;SDS011;65585;51.166;16.922;2023-09-07T13:57:40;7.57;;;5.45;;
76667;SDS011;65585;51.166;16.922;2023-09-07T14:00:06;5.80;;;5.00;;
76667;SDS011;65585;51.166;16.922;2023-09-07T14:02:32;6.80;;;5.18;;
76667;SDS011;65585;51.166;16.922;2023-09-07T14:04:58;7.45;;;5.40;;
76667;SDS011;65585;51.166;16.922;2023-09-07T14:07:25;6.07;;;5.25;;
76667;SDS011;65585;51.166;16.922;2023-09-07T14:09:54;6.78;;;5.47;;
76667;SDS011;65585;51.166;16.922;2023-09-07T14:12:20;7.18;;;5.38;;
76667;SDS011;65585;51.166;16.922;2023-09-07T14:14:47;8.90;;;5.53;;
76667;SDS011;65585;51.166;16.922;2023-09-07T14:17:14;5.75;;;5.15;;
76667;SDS011;65585;51.166;16.922;2023-09-07T14:19:40;5.65;;;5.03;;
76667;SDS011;65585;51.166;16.922;2023-09-07T14:22:06;6.82;;;5.10;;
76667;SDS011;65585;51.166;16.922;2023-09-07T14:24:32;7.45;;;5.10;;
76667;SDS011;65585;51.166;16.922;2023-09-07T14:26:58;9.02;;;5.00;;
76667;SDS011;65585;51.166;16.922;2023-09-07T14:29:24;5.55;;;4.95;;
76667;SDS011;65585;51.166;16.922;2023-09-07T14:31:52;6.85;;;5.25;;
76667;SDS011;65585;51.166;16.922;2023-09-07T14:34:18;5.68;;;4.70;;
76667;SDS011;65585;51.166;16.922;2023-09-07T14:36:46;5.47;;;4.97;;
76667;SDS011;65585;51.166;16.922;2023-09-07T14:39:13;5.45;;;4.32;;
76667;SDS011;65585;51.166;16.922;2023-09-07T14:41:39;6.82;;;4.78;;
76667;SDS011;65585;51.166;16.922;2023-09-07T14:44:06;5.15;;;4.28;;
76667;SDS011;65585;51.166;16.922;2023-09-07T14:46:31;7.53;;;5.00;;